sensor_id;sensor_type;location;lat;lon;timestamp;P1;P2;P0
46573;PMS5003;32299;53.366;-1.544;2022-08-19T00:00:46;11;11;
46573;PMS5003;32299;53.366;-1.544;2022-08-19T00:03:13;9;9;
46573;PMS5003;32299;53.366;-1.544;2022-08-19T00:05:41;12;10;
46573;PMS5003;32299;53.366;-1.544;2022-08-19T00:08:08;10;9;
46573;PMS5003;32299;53.366;-1.544;2022-08-19T00:10:35;8;8;
46573;PMS5003;32299;53.366;-1.544;2022-08-19T00:13:02;11;9;
46573;PMS5003;32299;53.366;-1.544;2022-08-19T00:15:29;8;8;
46573;PMS5003;32299;53.366;-1.544;2022-08-19T00:17:57;8;8;
46573;PMS5003;32299;53.366;-1.544;2022-08-19T00:20:24;8;6;
46573;PMS5003;32299;53.366;-1.544;2022-08-19T00:22:51;8;8;
46573;PMS5003;32299;53.366;-1.544;2022-08-19T00:25:18;7;7;
46573;PMS5003;32299;53.366;-1.544;2022-08-19T00:27:45;5;5;
46573;PMS5003;32299;53.366;-1.544;2022-08-19T00:30:12;5;5;
46573;PMS5003;32299;53.366;-1.544;2022-08-19T00:32:40;10;6;
46573;PMS5003;32299;53.366;-1.544;2022-08-19T00:35:07;5;3;
46573;PMS5003;32299;53.366;-1.544;2022-08-19T00:37:35;8;5;
46573;PMS5003;32299;53.366;-1.544;2022-08-19T00:40:03;7;5;
46573;PMS5003;32299;53.366;-1.544;2022-08-19T00:42:31;7;5;
46573;PMS5003;32299;53.366;-1.544;2022-08-19T00:44:58;6;6;
46573;PMS5003;32299;53.366;-1.544;2022-08-19T00:47:25;8;5;
46573;PMS5003;32299;53.366;-1.544;2022-08-19T00:49:55;6;6;
46573;PMS5003;32299;53.366;-1.544;2022-08-19T00:52:26;7;5;
46573;PMS5003;32299;53.366;-1.544;2022-08-19T00:54:56;5;4;
46573;PMS5003;32299;53.366;-1.544;2022-08-19T00:57:26;4;4;
46573;PMS5003;32299;53.366;-1.544;2022-08-19T01:00:07;10;4;
46573;PMS5003;32299;53.366;-1.544;2022-08-19T01:02:37;7;6;
46573;PMS5003;32299;53.366;-1.544;2022-08-19T01:05:07;13;6;
46573;PMS5003;32299;53.366;-1.544;2022-08-19T01:07:37;6;3;
46573;PMS5003;32299;53.366;-1.544;2022-08-19T01:10:08;10;4;
46573;PMS5003;32299;53.366;-1.544;2022-08-19T01:12:37;5;5;
46573;PMS5003;32299;53.366;-1.544;2022-08-19T01:15:06;5;5;
46573;PMS5003;32299;53.366;-1.544;2022-08-19T01:17:35;9;4;
46573;PMS5003;32299;53.366;-1.544;2022-08-19T01:20:08;6;5;
46573;PMS5003;32299;53.366;-1.544;2022-08-19T01:22:40;7;6;
46573;PMS5003;32299;53.366;-1.544;2022-08-19T01:25:11;6;4;
46573;PMS5003;32299;53.366;-1.544;2022-08-19T01:27:39;5;5;
46573;PMS5003;32299;53.366;-1.544;2022-08-19T01:30:08;8;5;
46573;PMS5003;32299;53.366;-1.544;2022-08-19T01:32:39;10;5;
46573;PMS5003;32299;53.366;-1.544;2022-08-19T01:35:07;9;6;
46573;PMS5003;32299;53.366;-1.544;2022-08-19T01:37:44;5;3;
46573;PMS5003;32299;53.366;-1.544;2022-08-19T01:40:14;8;5;
46573;PMS5003;32299;53.366;-1.544;2022-08-19T01:42:42;6;5;
46573;PMS5003;32299;53.366;-1.544;2022-08-19T01:45:09;3;3;
46573;PMS5003;32299;53.366;-1.544;2022-08-19T01:47:37;11;5;
46573;PMS5003;32299;53.366;-1.544;2022-08-19T01:50:06;16;8;
46573;PMS5003;32299;53.366;-1.544;2022-08-19T01:52:35;7;4;
46573;PMS5003;32299;53.366;-1.544;2022-08-19T01:55:03;10;4;
46573;PMS5003;32299;53.366;-1.544;2022-08-19T01:57:32;6;5;
46573;PMS5003;32299;53.366;-1.544;2022-08-19T02:00:00;7;4;
46573;PMS5003;32299;53.366;-1.544;2022-08-19T02:02:27;8;7;
46573;PMS5003;32299;53.366;-1.544;2022-08-19T02:04:54;4;4;
46573;PMS5003;32299;53.366;-1.544;2022-08-19T02:07:21;6;3;
46573;PMS5003;32299;53.366;-1.544;2022-08-19T02:09:49;10;5;
46573;PMS5003;32299;53.366;-1.544;2022-08-19T02:12:16;10;5;
46573;PMS5003;32299;53.366;-1.544;2022-08-19T02:14:43;6;5;
46573;PMS5003;32299;53.366;-1.544;2022-08-19T02:17:11;8;5;
46573;PMS5003;32299;53.366;-1.544;2022-08-19T02:19:38;10;6;
46573;PMS5003;32299;53.366;-1.544;2022-08-19T02:22:05;8;4;
46573;PMS5003;32299;53.366;-1.544;2022-08-19T02:24:33;4;3;
46573;PMS5003;32299;53.366;-1.544;2022-08-19T02:27:00;10;8;
46573;PMS5003;32299;53.366;-1.544;2022-08-19T02:29:27;17;7;
46573;PMS5003;32299;53.366;-1.544;2022-08-19T02:31:54;7;6;
46573;PMS5003;32299;53.366;-1.544;2022-08-19T02:34:21;7;5;
46573;PMS5003;32299;53.366;-1.544;2022-08-19T02:36:48;7;4;
46573;PMS5003;32299;53.366;-1.544;2022-08-19T02:39:15;7;5;
46573;PMS5003;32299;53.366;-1.544;2022-08-19T02:41:42;7;6;
46573;PMS5003;32299;53.366;-1.544;2022-08-19T02:44:09;10;7;
46573;PMS5003;32299;53.366;-1.544;2022-08-19T02:46:36;10;5;
46573;PMS5003;32299;53.366;-1.544;2022-08-19T02:49:05;8;5;
46573;PMS5003;32299;53.366;-1.544;2022-08-19T02:51:35;8;4;
46573;PMS5003;32299;53.366;-1.544;2022-08-19T02:54:04;9;4;
46573;PMS5003;32299;53.366;-1.544;2022-08-19T02:56:34;8;6;
46573;PMS5003;32299;53.366;-1.544;2022-08-19T02:59:02;17;5;
46573;PMS5003;32299;53.366;-1.544;2022-08-19T03:01:31;7;6;
46573;PMS5003;32299;53.366;-1.544;2022-08-19T03:04:00;8;4;
46573;PMS5003;32299;53.366;-1.544;2022-08-19T03:06:29;8;5;
46573;PMS5003;32299;53.366;-1.544;2022-08-19T03:08:58;8;6;
46573;PMS5003;32299;53.366;-1.544;2022-08-19T03:11:26;6;5;
46573;PMS5003;32299;53.366;-1.544;2022-08-19T03:13:56;13;7;
46573;PMS5003;32299;53.366;-1.544;2022-08-19T03:16:25;9;4;
46573;PMS5003;32299;53.366;-1.544;2022-08-19T03:18:55;14;8;
46573;PMS5003;32299;53.366;-1.544;2022-08-19T03:21:24;9;4;
46573;PMS5003;32299;53.366;-1.544;2022-08-19T03:23:54;5;4;
46573;PMS5003;32299;53.366;-1.544;2022-08-19T03:26:22;12;4;
46573;PMS5003;32299;53.366;-1.544;2022-08-19T03:28:49;8;6;
46573;PMS5003;32299;53.366;-1.544;2022-08-19T03:31:17;9;5;
46573;PMS5003;32299;53.366;-1.544;2022-08-19T03:33:45;9;4;
46573;PMS5003;32299;53.366;-1.544;2022-08-19T03:36:13;13;7;
46573;PMS5003;32299;53.366;-1.544;2022-08-19T03:38:43;7;4;
46573;PMS5003;32299;53.366;-1.544;2022-08-19T03:41:12;6;5;
46573;PMS5003;32299;53.366;-1.544;2022-08-19T03:43:41;9;5;
46573;PMS5003;32299;53.366;-1.544;2022-08-19T03:46:10;12;7;
46573;PMS5003;32299;53.366;-1.544;2022-08-19T03:48:39;14;3;
46573;PMS5003;32299;53.366;-1.544;2022-08-19T03:51:07;9;6;
46573;PMS5003;32299;53.366;-1.544;2022-08-19T03:53:41;21;6;
46573;PMS5003;32299;53.366;-1.544;2022-08-19T03:56:08;5;3;
46573;PMS5003;32299;53.366;-1.544;2022-08-19T03:58:36;5;4;
46573;PMS5003;32299;53.366;-1.544;2022-08-19T04:01:06;9;5;
46573;PMS5003;32299;53.366;-1.544;2022-08-19T04:03:36;6;2;
46573;PMS5003;32299;53.366;-1.544;2022-08-19T04:06:09;4;4;
46573;PMS5003;32299;53.366;-1.544;2022-08-19T04:08:38;7;4;
46573;PMS5003;32299;53.366;-1.544;2022-08-19T04:11:06;7;5;
46573;PMS5003;32299;53.366;-1.544;2022-08-19T04:13:35;5;3;
46573;PMS5003;32299;53.366;-1.544;2022-08-19T04:16:02;9;3;
46573;PMS5003;32299;53.366;-1.544;2022-08-19T04:18:30;10;6;
46573;PMS5003;32299;53.366;-1.544;2022-08-19T04:20:58;2;2;
46573;PMS5003;32299;53.366;-1.544;2022-08-19T04:23:25;7;3;
46573;PMS5003;32299;53.366;-1.544;2022-08-19T04:25:53;8;4;
46573;PMS5003;32299;53.366;-1.544;2022-08-19T04:28:21;6;5;
46573;PMS5003;32299;53.366;-1.544;2022-08-19T04:30:53;8;5;
46573;PMS5003;32299;53.366;-1.544;2022-08-19T04:33:24;12;7;
46573;PMS5003;32299;53.366;-1.544;2022-08-19T04:35:52;8;5;
46573;PMS5003;32299;53.366;-1.544;2022-08-19T04:38:19;9;5;
46573;PMS5003;32299;53.366;-1.544;2022-08-19T04:40:49;24;9;
46573;PMS5003;32299;53.366;-1.544;2022-08-19T04:43:17;7;6;
46573;PMS5003;32299;53.366;-1.544;2022-08-19T04:45:45;16;5;
46573;PMS5003;32299;53.366;-1.544;2022-08-19T04:48:13;7;5;
46573;PMS5003;32299;53.366;-1.544;2022-08-19T04:50:41;9;6;
46573;PMS5003;32299;53.366;-1.544;2022-08-19T04:53:10;7;5;
46573;PMS5003;32299;53.366;-1.544;2022-08-19T04:55:39;8;5;
46573;PMS5003;32299;53.366;-1.544;2022-08-19T04:58:08;10;5;
46573;PMS5003;32299;53.366;-1.544;2022-08-19T05:00:37;11;7;
46573;PMS5003;32299;53.366;-1.544;2022-08-19T05:03:05;6;5;
46573;PMS5003;32299;53.366;-1.544;2022-08-19T05:05:32;4;4;
46573;PMS5003;32299;53.366;-1.544;2022-08-19T05:08:00;8;5;
46573;PMS5003;32299;53.366;-1.544;2022-08-19T05:10:28;7;7;
46573;PMS5003;32299;53.366;-1.544;2022-08-19T05:12:55;7;5;
46573;PMS5003;32299;53.366;-1.544;2022-08-19T05:15:22;5;4;
46573;PMS5003;32299;53.366;-1.544;2022-08-19T05:17:50;7;5;
46573;PMS5003;32299;53.366;-1.544;2022-08-19T05:20:17;10;5;
46573;PMS5003;32299;53.366;-1.544;2022-08-19T05:22:45;13;6;
46573;PMS5003;32299;53.366;-1.544;2022-08-19T05:25:14;5;5;
46573;PMS5003;32299;53.366;-1.544;2022-08-19T05:27:43;6;5;
46573;PMS5003;32299;53.366;-1.544;2022-08-19T05:30:11;7;5;
46573;PMS5003;32299;53.366;-1.544;2022-08-19T05:32:40;8;6;
46573;PMS5003;32299;53.366;-1.544;2022-08-19T05:35:08;5;4;
46573;PMS5003;32299;53.366;-1.544;2022-08-19T05:37:36;3;2;
46573;PMS5003;32299;53.366;-1.544;2022-08-19T05:40:04;8;4;
46573;PMS5003;32299;53.366;-1.544;2022-08-19T05:42:32;6;4;
46573;PMS5003;32299;53.366;-1.544;2022-08-19T05:44:59;8;5;
46573;PMS5003;32299;53.366;-1.544;2022-08-19T05:47:26;7;6;
46573;PMS5003;32299;53.366;-1.544;2022-08-19T05:49:54;22;6;
46573;PMS5003;32299;53.366;-1.544;2022-08-19T05:52:21;6;5;
46573;PMS5003;32299;53.366;-1.544;2022-08-19T05:54:49;9;6;
46573;PMS5003;32299;53.366;-1.544;2022-08-19T05:57:16;10;4;
46573;PMS5003;32299;53.366;-1.544;2022-08-19T05:59:43;10;7;
46573;PMS5003;32299;53.366;-1.544;2022-08-19T06:02:11;8;5;
46573;PMS5003;32299;53.366;-1.544;2022-08-19T06:04:38;7;7;
46573;PMS5003;32299;53.366;-1.544;2022-08-19T06:07:05;9;6;
46573;PMS5003;32299;53.366;-1.544;2022-08-19T06:09:32;9;5;
46573;PMS5003;32299;53.366;-1.544;2022-08-19T06:11:59;10;5;
46573;PMS5003;32299;53.366;-1.544;2022-08-19T06:14:29;10;5;
46573;PMS5003;32299;53.366;-1.544;2022-08-19T06:16:58;5;4;
46573;PMS5003;32299;53.366;-1.544;2022-08-19T06:19:26;7;6;
46573;PMS5003;32299;53.366;-1.544;2022-08-19T06:21:53;13;5;
46573;PMS5003;32299;53.366;-1.544;2022-08-19T06:24:21;6;5;
46573;PMS5003;32299;53.366;-1.544;2022-08-19T06:26:52;10;6;
46573;PMS5003;32299;53.366;-1.544;2022-08-19T06:29:22;7;5;
46573;PMS5003;32299;53.366;-1.544;2022-08-19T06:31:51;10;5;
46573;PMS5003;32299;53.366;-1.544;2022-08-19T06:34:20;11;6;
46573;PMS5003;32299;53.366;-1.544;2022-08-19T06:36:48;4;4;
46573;PMS5003;32299;53.366;-1.544;2022-08-19T06:39:19;5;5;
46573;PMS5003;32299;53.366;-1.544;2022-08-19T06:41:48;14;9;
46573;PMS5003;32299;53.366;-1.544;2022-08-19T06:44:17;9;6;
46573;PMS5003;32299;53.366;-1.544;2022-08-19T06:46:45;9;6;
46573;PMS5003;32299;53.366;-1.544;2022-08-19T06:49:12;8;7;
46573;PMS5003;32299;53.366;-1.544;2022-08-19T06:51:40;6;5;
46573;PMS5003;32299;53.366;-1.544;2022-08-19T06:54:08;9;6;
46573;PMS5003;32299;53.366;-1.544;2022-08-19T06:56:37;14;3;
46573;PMS5003;32299;53.366;-1.544;2022-08-19T06:59:05;6;5;
46573;PMS5003;32299;53.366;-1.544;2022-08-19T07:01:34;6;4;
46573;PMS5003;32299;53.366;-1.544;2022-08-19T07:04:03;7;5;
46573;PMS5003;32299;53.366;-1.544;2022-08-19T07:06:31;7;6;
46573;PMS5003;32299;53.366;-1.544;2022-08-19T07:08:59;17;6;
46573;PMS5003;32299;53.366;-1.544;2022-08-19T07:11:26;11;5;
46573;PMS5003;32299;53.366;-1.544;2022-08-19T07:13:54;7;6;
46573;PMS5003;32299;53.366;-1.544;2022-08-19T07:16:21;13;6;
46573;PMS5003;32299;53.366;-1.544;2022-08-19T07:18:49;11;6;
46573;PMS5003;32299;53.366;-1.544;2022-08-19T07:21:20;7;5;
46573;PMS5003;32299;53.366;-1.544;2022-08-19T07:23:50;12;5;
46573;PMS5003;32299;53.366;-1.544;2022-08-19T07:26:18;4;4;
46573;PMS5003;32299;53.366;-1.544;2022-08-19T07:28:47;14;6;
46573;PMS5003;32299;53.366;-1.544;2022-08-19T07:31:16;9;6;
46573;PMS5003;32299;53.366;-1.544;2022-08-19T07:33:46;4;3;
46573;PMS5003;32299;53.366;-1.544;2022-08-19T07:36:15;16;6;
46573;PMS5003;32299;53.366;-1.544;2022-08-19T07:38:44;7;6;
46573;PMS5003;32299;53.366;-1.544;2022-08-19T07:41:15;5;3;
46573;PMS5003;32299;53.366;-1.544;2022-08-19T07:43:44;8;4;
46573;PMS5003;32299;53.366;-1.544;2022-08-19T07:46:11;17;7;
46573;PMS5003;32299;53.366;-1.544;2022-08-19T07:48:39;10;6;
46573;PMS5003;32299;53.366;-1.544;2022-08-19T07:51:09;12;8;
46573;PMS5003;32299;53.366;-1.544;2022-08-19T07:53:37;6;6;
46573;PMS5003;32299;53.366;-1.544;2022-08-19T07:56:04;5;4;
46573;PMS5003;32299;53.366;-1.544;2022-08-19T07:58:33;12;4;
46573;PMS5003;32299;53.366;-1.544;2022-08-19T08:01:06;7;7;
46573;PMS5003;32299;53.366;-1.544;2022-08-19T08:03:36;10;6;
46573;PMS5003;32299;53.366;-1.544;2022-08-19T08:06:04;8;7;
46573;PMS5003;32299;53.366;-1.544;2022-08-19T08:08:32;9;6;
46573;PMS5003;32299;53.366;-1.544;2022-08-19T08:10:59;8;7;
46573;PMS5003;32299;53.366;-1.544;2022-08-19T08:13:27;8;5;
46573;PMS5003;32299;53.366;-1.544;2022-08-19T08:15:54;4;3;
46573;PMS5003;32299;53.366;-1.544;2022-08-19T08:18:22;8;7;
46573;PMS5003;32299;53.366;-1.544;2022-08-19T08:20:50;12;5;
46573;PMS5003;32299;53.366;-1.544;2022-08-19T08:23:17;8;6;
46573;PMS5003;32299;53.366;-1.544;2022-08-19T08:25:44;8;5;
46573;PMS5003;32299;53.366;-1.544;2022-08-19T08:28:11;7;4;
46573;PMS5003;32299;53.366;-1.544;2022-08-19T08:30:38;17;6;
46573;PMS5003;32299;53.366;-1.544;2022-08-19T08:33:06;19;5;
46573;PMS5003;32299;53.366;-1.544;2022-08-19T08:35:33;7;6;
46573;PMS5003;32299;53.366;-1.544;2022-08-19T08:38:01;8;6;
46573;PMS5003;32299;53.366;-1.544;2022-08-19T08:40:30;18;6;
46573;PMS5003;32299;53.366;-1.544;2022-08-19T08:43:05;19;4;
46573;PMS5003;32299;53.366;-1.544;2022-08-19T08:45:36;6;4;
46573;PMS5003;32299;53.366;-1.544;2022-08-19T08:48:13;7;2;
46573;PMS5003;32299;53.366;-1.544;2022-08-19T08:50:45;6;3;
46573;PMS5003;32299;53.366;-1.544;2022-08-19T08:53:19;13;7;
46573;PMS5003;32299;53.366;-1.544;2022-08-19T08:55:47;6;4;
46573;PMS5003;32299;53.366;-1.544;2022-08-19T08:58:14;8;5;
46573;PMS5003;32299;53.366;-1.544;2022-08-19T09:00:47;5;4;
46573;PMS5003;32299;53.366;-1.544;2022-08-19T09:03:17;6;4;
46573;PMS5003;32299;53.366;-1.544;2022-08-19T09:05:48;3;3;
46573;PMS5003;32299;53.366;-1.544;2022-08-19T09:08:27;3;1;
46573;PMS5003;32299;53.366;-1.544;2022-08-19T09:11:10;6;3;
46573;PMS5003;32299;53.366;-1.544;2022-08-19T09:13:49;7;4;
46573;PMS5003;32299;53.366;-1.544;2022-08-19T09:16:28;4;3;
46573;PMS5003;32299;53.366;-1.544;2022-08-19T09:18:58;6;4;
46573;PMS5003;32299;53.366;-1.544;2022-08-19T09:21:29;9;4;
46573;PMS5003;32299;53.366;-1.544;2022-08-19T09:23:56;6;4;
46573;PMS5003;32299;53.366;-1.544;2022-08-19T09:26:23;5;5;
46573;PMS5003;32299;53.366;-1.544;2022-08-19T09:28:51;7;4;
46573;PMS5003;32299;53.366;-1.544;2022-08-19T09:31:20;10;5;
46573;PMS5003;32299;53.366;-1.544;2022-08-19T09:33:49;2;1;
46573;PMS5003;32299;53.366;-1.544;2022-08-19T09:36:18;10;3;
46573;PMS5003;32299;53.366;-1.544;2022-08-19T09:38:47;3;2;
46573;PMS5003;32299;53.366;-1.544;2022-08-19T09:41:16;8;5;
46573;PMS5003;32299;53.366;-1.544;2022-08-19T09:43:45;5;3;
46573;PMS5003;32299;53.366;-1.544;2022-08-19T09:46:14;6;3;
46573;PMS5003;32299;53.366;-1.544;2022-08-19T09:48:41;10;3;
46573;PMS5003;32299;53.366;-1.544;2022-08-19T09:51:09;8;3;
46573;PMS5003;32299;53.366;-1.544;2022-08-19T09:53:38;7;4;
46573;PMS5003;32299;53.366;-1.544;2022-08-19T09:56:06;6;3;
46573;PMS5003;32299;53.366;-1.544;2022-08-19T09:58:33;4;4;
46573;PMS5003;32299;53.366;-1.544;2022-08-19T10:01:01;7;3;
46573;PMS5003;32299;53.366;-1.544;2022-08-19T10:03:30;4;3;
46573;PMS5003;32299;53.366;-1.544;2022-08-19T10:06:05;4;2;
46573;PMS5003;32299;53.366;-1.544;2022-08-19T10:08:34;8;4;
46573;PMS5003;32299;53.366;-1.544;2022-08-19T10:11:04;5;4;
46573;PMS5003;32299;53.366;-1.544;2022-08-19T10:13:31;6;2;
46573;PMS5003;32299;53.366;-1.544;2022-08-19T10:16:02;4;3;
46573;PMS5003;32299;53.366;-1.544;2022-08-19T10:18:31;2;2;
46573;PMS5003;32299;53.366;-1.544;2022-08-19T10:21:03;12;6;
46573;PMS5003;32299;53.366;-1.544;2022-08-19T10:23:32;4;3;
46573;PMS5003;32299;53.366;-1.544;2022-08-19T10:26:00;9;4;
46573;PMS5003;32299;53.366;-1.544;2022-08-19T10:28:27;4;2;
46573;PMS5003;32299;53.366;-1.544;2022-08-19T10:30:55;13;3;
46573;PMS5003;32299;53.366;-1.544;2022-08-19T10:33:22;8;3;
46573;PMS5003;32299;53.366;-1.544;2022-08-19T10:35:58;3;2;
46573;PMS5003;32299;53.366;-1.544;2022-08-19T10:38:26;8;5;
46573;PMS5003;32299;53.366;-1.544;2022-08-19T10:40:53;8;4;
46573;PMS5003;32299;53.366;-1.544;2022-08-19T10:43:20;10;6;
46573;PMS5003;32299;53.366;-1.544;2022-08-19T10:45:48;2;2;
46573;PMS5003;32299;53.366;-1.544;2022-08-19T10:48:19;5;4;
46573;PMS5003;32299;53.366;-1.544;2022-08-19T10:50:46;2;1;
46573;PMS5003;32299;53.366;-1.544;2022-08-19T10:53:13;3;2;
46573;PMS5003;32299;53.366;-1.544;2022-08-19T10:55:40;2;1;
46573;PMS5003;32299;53.366;-1.544;2022-08-19T10:58:11;5;4;
46573;PMS5003;32299;53.366;-1.544;2022-08-19T11:00:39;1;1;
46573;PMS5003;32299;53.366;-1.544;2022-08-19T11:03:07;3;2;
46573;PMS5003;32299;53.366;-1.544;2022-08-19T11:05:35;6;2;
46573;PMS5003;32299;53.366;-1.544;2022-08-19T11:08:02;4;4;
46573;PMS5003;32299;53.366;-1.544;2022-08-19T11:10:30;5;3;
46573;PMS5003;32299;53.366;-1.544;2022-08-19T11:12:57;14;3;
46573;PMS5003;32299;53.366;-1.544;2022-08-19T11:15:25;8;1;
46573;PMS5003;32299;53.366;-1.544;2022-08-19T11:17:52;1;0;
46573;PMS5003;32299;53.366;-1.544;2022-08-19T11:20:19;4;1;
46573;PMS5003;32299;53.366;-1.544;2022-08-19T11:22:46;3;2;
46573;PMS5003;32299;53.366;-1.544;2022-08-19T11:25:12;3;1;
46573;PMS5003;32299;53.366;-1.544;2022-08-19T11:27:40;3;1;
46573;PMS5003;32299;53.366;-1.544;2022-08-19T11:30:08;5;4;
46573;PMS5003;32299;53.366;-1.544;2022-08-19T11:32:36;3;1;
46573;PMS5003;32299;53.366;-1.544;2022-08-19T11:35:04;2;2;
46573;PMS5003;32299;53.366;-1.544;2022-08-19T11:37:31;7;2;
46573;PMS5003;32299;53.366;-1.544;2022-08-19T11:39:58;5;2;
46573;PMS5003;32299;53.366;-1.544;2022-08-19T11:42:25;2;0;
46573;PMS5003;32299;53.366;-1.544;2022-08-19T11:44:52;3;1;
46573;PMS5003;32299;53.366;-1.544;2022-08-19T11:47:20;4;3;
46573;PMS5003;32299;53.366;-1.544;2022-08-19T11:49:47;2;2;
46573;PMS5003;32299;53.366;-1.544;2022-08-19T11:52:14;4;3;
46573;PMS5003;32299;53.366;-1.544;2022-08-19T11:54:41;3;3;
46573;PMS5003;32299;53.366;-1.544;2022-08-19T11:57:08;6;4;
46573;PMS5003;32299;53.366;-1.544;2022-08-19T11:59:34;9;4;
46573;PMS5003;32299;53.366;-1.544;2022-08-19T12:02:01;5;2;
46573;PMS5003;32299;53.366;-1.544;2022-08-19T12:04:28;8;4;
46573;PMS5003;32299;53.366;-1.544;2022-08-19T12:06:55;5;5;
46573;PMS5003;32299;53.366;-1.544;2022-08-19T12:09:22;4;4;
46573;PMS5003;32299;53.366;-1.544;2022-08-19T12:11:49;9;3;
46573;PMS5003;32299;53.366;-1.544;2022-08-19T12:14:16;4;3;
46573;PMS5003;32299;53.366;-1.544;2022-08-19T12:16:44;4;2;
46573;PMS5003;32299;53.366;-1.544;2022-08-19T12:19:12;5;2;
46573;PMS5003;32299;53.366;-1.544;2022-08-19T12:21:39;5;2;
46573;PMS5003;32299;53.366;-1.544;2022-08-19T12:24:06;14;5;
46573;PMS5003;32299;53.366;-1.544;2022-08-19T12:26:33;3;1;
46573;PMS5003;32299;53.366;-1.544;2022-08-19T12:29:01;15;4;
46573;PMS5003;32299;53.366;-1.544;2022-08-19T12:31:28;3;3;
46573;PMS5003;32299;53.366;-1.544;2022-08-19T12:33:56;8;2;
46573;PMS5003;32299;53.366;-1.544;2022-08-19T12:36:24;4;3;
46573;PMS5003;32299;53.366;-1.544;2022-08-19T12:38:52;6;3;
46573;PMS5003;32299;53.366;-1.544;2022-08-19T12:41:20;1;1;
46573;PMS5003;32299;53.366;-1.544;2022-08-19T12:43:47;1;1;
46573;PMS5003;32299;53.366;-1.544;2022-08-19T12:46:15;2;2;
46573;PMS5003;32299;53.366;-1.544;2022-08-19T12:48:43;0;0;
46573;PMS5003;32299;53.366;-1.544;2022-08-19T12:51:12;4;0;
46573;PMS5003;32299;53.366;-1.544;2022-08-19T12:53:41;2;1;
46573;PMS5003;32299;53.366;-1.544;2022-08-19T12:56:09;1;1;
46573;PMS5003;32299;53.366;-1.544;2022-08-19T12:58:38;5;0;
46573;PMS5003;32299;53.366;-1.544;2022-08-19T13:01:06;2;1;
46573;PMS5003;32299;53.366;-1.544;2022-08-19T13:03:34;1;1;
46573;PMS5003;32299;53.366;-1.544;2022-08-19T13:06:01;4;2;
46573;PMS5003;32299;53.366;-1.544;2022-08-19T13:08:29;2;2;
46573;PMS5003;32299;53.366;-1.544;2022-08-19T13:10:56;13;3;
46573;PMS5003;32299;53.366;-1.544;2022-08-19T13:13:24;7;4;
46573;PMS5003;32299;53.366;-1.544;2022-08-19T13:15:51;5;2;
46573;PMS5003;32299;53.366;-1.544;2022-08-19T13:18:18;0;0;
46573;PMS5003;32299;53.366;-1.544;2022-08-19T13:20:45;1;1;
46573;PMS5003;32299;53.366;-1.544;2022-08-19T13:23:12;2;0;
46573;PMS5003;32299;53.366;-1.544;2022-08-19T13:25:38;5;0;
46573;PMS5003;32299;53.366;-1.544;2022-08-19T13:28:05;3;2;
46573;PMS5003;32299;53.366;-1.544;2022-08-19T13:30:32;0;0;
46573;PMS5003;32299;53.366;-1.544;2022-08-19T13:33:06;4;2;
46573;PMS5003;32299;53.366;-1.544;2022-08-19T13:35:34;1;0;
46573;PMS5003;32299;53.366;-1.544;2022-08-19T13:38:01;2;1;
46573;PMS5003;32299;53.366;-1.544;2022-08-19T13:40:28;2;1;
46573;PMS5003;32299;53.366;-1.544;2022-08-19T13:42:55;3;0;
46573;PMS5003;32299;53.366;-1.544;2022-08-19T13:45:23;2;0;
46573;PMS5003;32299;53.366;-1.544;2022-08-19T13:47:52;2;0;
46573;PMS5003;32299;53.366;-1.544;2022-08-19T13:50:21;0;0;
46573;PMS5003;32299;53.366;-1.544;2022-08-19T13:52:51;2;2;
46573;PMS5003;32299;53.366;-1.544;2022-08-19T13:55:18;1;0;
46573;PMS5003;32299;53.366;-1.544;2022-08-19T13:57:46;1;1;
46573;PMS5003;32299;53.366;-1.544;2022-08-19T14:00:17;1;1;
46573;PMS5003;32299;53.366;-1.544;2022-08-19T14:02:45;3;1;
46573;PMS5003;32299;53.366;-1.544;2022-08-19T14:05:15;0;0;
46573;PMS5003;32299;53.366;-1.544;2022-08-19T14:07:42;2;1;
46573;PMS5003;32299;53.366;-1.544;2022-08-19T14:10:10;2;0;
46573;PMS5003;32299;53.366;-1.544;2022-08-19T14:12:39;3;0;
46573;PMS5003;32299;53.366;-1.544;2022-08-19T14:15:08;2;2;
46573;PMS5003;32299;53.366;-1.544;2022-08-19T14:17:37;1;1;
46573;PMS5003;32299;53.366;-1.544;2022-08-19T14:20:06;4;1;
46573;PMS5003;32299;53.366;-1.544;2022-08-19T14:22:36;2;2;
46573;PMS5003;32299;53.366;-1.544;2022-08-19T14:25:05;2;0;
46573;PMS5003;32299;53.366;-1.544;2022-08-19T14:27:35;3;1;
46573;PMS5003;32299;53.366;-1.544;2022-08-19T14:30:05;1;1;
46573;PMS5003;32299;53.366;-1.544;2022-08-19T14:32:35;3;1;
46573;PMS5003;32299;53.366;-1.544;2022-08-19T14:35:03;1;0;
46573;PMS5003;32299;53.366;-1.544;2022-08-19T14:37:32;1;1;
46573;PMS5003;32299;53.366;-1.544;2022-08-19T14:40:00;0;0;
46573;PMS5003;32299;53.366;-1.544;2022-08-19T14:42:28;1;1;
46573;PMS5003;32299;53.366;-1.544;2022-08-19T14:44:57;0;0;
46573;PMS5003;32299;53.366;-1.544;2022-08-19T14:47:25;3;1;
46573;PMS5003;32299;53.366;-1.544;2022-08-19T14:49:52;3;2;
46573;PMS5003;32299;53.366;-1.544;2022-08-19T14:52:19;2;1;
46573;PMS5003;32299;53.366;-1.544;2022-08-19T14:54:46;0;0;
46573;PMS5003;32299;53.366;-1.544;2022-08-19T14:57:13;2;1;
46573;PMS5003;32299;53.366;-1.544;2022-08-19T14:59:41;1;1;
46573;PMS5003;32299;53.366;-1.544;2022-08-19T15:02:08;4;2;
46573;PMS5003;32299;53.366;-1.544;2022-08-19T15:04:35;1;1;
46573;PMS5003;32299;53.366;-1.544;2022-08-19T15:07:02;2;2;
46573;PMS5003;32299;53.366;-1.544;2022-08-19T15:09:29;2;1;
46573;PMS5003;32299;53.366;-1.544;2022-08-19T15:11:57;1;1;
46573;PMS5003;32299;53.366;-1.544;2022-08-19T15:14:24;3;1;
46573;PMS5003;32299;53.366;-1.544;2022-08-19T15:16:52;1;1;
46573;PMS5003;32299;53.366;-1.544;2022-08-19T15:19:20;2;2;
46573;PMS5003;32299;53.366;-1.544;2022-08-19T15:21:47;2;2;
46573;PMS5003;32299;53.366;-1.544;2022-08-19T15:24:13;3;2;
46573;PMS5003;32299;53.366;-1.544;2022-08-19T15:26:40;2;1;
46573;PMS5003;32299;53.366;-1.544;2022-08-19T15:29:07;1;1;
46573;PMS5003;32299;53.366;-1.544;2022-08-19T15:31:34;1;1;
46573;PMS5003;32299;53.366;-1.544;2022-08-19T15:34:01;1;1;
46573;PMS5003;32299;53.366;-1.544;2022-08-19T15:36:29;1;1;
46573;PMS5003;32299;53.366;-1.544;2022-08-19T15:38:56;2;1;
46573;PMS5003;32299;53.366;-1.544;2022-08-19T15:41:25;0;0;
46573;PMS5003;32299;53.366;-1.544;2022-08-19T15:43:57;2;1;
46573;PMS5003;32299;53.366;-1.544;2022-08-19T15:46:26;1;1;
46573;PMS5003;32299;53.366;-1.544;2022-08-19T15:48:55;1;1;
46573;PMS5003;32299;53.366;-1.544;2022-08-19T15:51:23;1;1;
46573;PMS5003;32299;53.366;-1.544;2022-08-19T15:53:51;1;1;
46573;PMS5003;32299;53.366;-1.544;2022-08-19T15:56:19;1;1;
46573;PMS5003;32299;53.366;-1.544;2022-08-19T15:58:46;2;0;
46573;PMS5003;32299;53.366;-1.544;2022-08-19T16:01:13;2;1;
46573;PMS5003;32299;53.366;-1.544;2022-08-19T16:03:40;1;1;
46573;PMS5003;32299;53.366;-1.544;2022-08-19T16:06:07;2;0;
46573;PMS5003;32299;53.366;-1.544;2022-08-19T16:08:34;2;1;
46573;PMS5003;32299;53.366;-1.544;2022-08-19T16:11:01;6;2;
46573;PMS5003;32299;53.366;-1.544;2022-08-19T16:13:29;6;1;
46573;PMS5003;32299;53.366;-1.544;2022-08-19T16:15:56;3;1;
46573;PMS5003;32299;53.366;-1.544;2022-08-19T16:18:23;0;0;
46573;PMS5003;32299;53.366;-1.544;2022-08-19T16:20:50;3;1;
46573;PMS5003;32299;53.366;-1.544;2022-08-19T16:23:17;1;1;
46573;PMS5003;32299;53.366;-1.544;2022-08-19T16:25:43;0;0;
46573;PMS5003;32299;53.366;-1.544;2022-08-19T16:28:10;1;1;
46573;PMS5003;32299;53.366;-1.544;2022-08-19T16:30:38;1;0;
46573;PMS5003;32299;53.366;-1.544;2022-08-19T16:33:06;0;0;
46573;PMS5003;32299;53.366;-1.544;2022-08-19T16:35:35;0;0;
46573;PMS5003;32299;53.366;-1.544;2022-08-19T16:38:03;1;1;